Time;durP1;ratioP1;P1;durP2;ratioP2;P2;SDS_P1;SDS_P2;PMS_P1;PMS_P2;Temp;Humidity;BMP_temperature;BMP_pressure;BME280_temperature;BME280_humidity;BME280_pressure;Samples;Min_cycle;Max_cycle;Signal;HPM_P1;HPM_P2
2023/05/09 00:00:32;;;;;;;35.30;25.45;;;;;;;18.24;45.42;93795.03;4985316;28;20677;-89
2023/05/09 00:02:58;;;;;;;34.17;24.02;;;;;;;18.25;45.69;93790.31;5002046;28;20042;-88
2023/05/09 00:05:23;;;;;;;33.38;23.23;;;;;;;18.25;45.34;93791.06;4987560;28;20603;-88
2023/05/09 00:07:49;;;;;;;32.20;22.80;;;;;;;18.25;45.28;93787.56;4956594;28;20088;-88
2023/05/09 00:10:14;;;;;;;34.47;24.35;;;;;;;18.25;45.58;93785.56;4955444;28;20034;-88
2023/05/09 00:12:42;;;;;;;34.10;24.70;;;;;;;18.24;45.42;93784.09;4956974;28;20034;-88
2023/05/09 00:15:08;;;;;;;31.08;22.60;;;;;;;18.23;45.79;93781.84;4988810;28;20033;-89
2023/05/09 00:17:35;;;;;;;31.10;22.48;;;;;;;18.23;45.61;93779.13;4975920;28;20033;-88
2023/05/09 00:20:01;;;;;;;31.92;24.45;;;;;;;18.23;45.83;93793.53;5019462;28;20037;-89
2023/05/09 00:22:26;;;;;;;33.85;23.95;;;;;;;18.22;45.75;93777.63;5032118;28;20421;-89
2023/05/09 00:24:52;;;;;;;34.53;25.80;;;;;;;18.22;45.63;93767.41;5009719;28;20540;-88
2023/05/09 00:27:17;;;;;;;35.80;24.77;;;;;;;18.23;45.35;93760.69;4993138;28;20041;-88
2023/05/09 00:29:42;;;;;;;29.33;22.75;;;;;;;18.22;45.27;93761.94;5009867;28;20041;-88
2023/05/09 00:32:08;;;;;;;30.83;21.27;;;;;;;18.23;45.30;93763.44;5009286;28;20029;-89
2023/05/09 00:34:33;;;;;;;29.48;22.85;;;;;;;18.21;45.65;93762.44;4992959;28;20125;-88
2023/05/09 00:36:59;;;;;;;33.42;23.48;;;;;;;18.19;45.85;93759.50;4990240;28;20034;-89
2023/05/09 00:39:25;;;;;;;31.60;22.55;;;;;;;18.20;45.62;93753.50;5005093;28;20034;-88
2023/05/09 00:41:50;;;;;;;34.30;23.25;;;;;;;18.17;45.52;93754.53;5006608;28;20026;-89
2023/05/09 00:44:16;;;;;;;31.73;22.15;;;;;;;18.21;45.32;93751.50;5022177;28;20396;-88
2023/05/09 00:46:41;;;;;;;29.70;22.98;;;;;;;18.20;45.43;93747.28;5009965;28;20037;-89
2023/05/09 00:49:07;;;;;;;34.35;23.42;;;;;;;18.20;45.56;93747.28;4992613;28;20049;-89
2023/05/09 00:51:32;;;;;;;32.08;24.30;;;;;;;18.19;45.88;93745.81;4993346;28;20460;-89
2023/05/09 00:53:57;;;;;;;33.30;23.98;;;;;;;18.20;45.57;93745.28;5009287;28;20415;-90
2023/05/09 00:56:23;;;;;;;31.55;24.55;;;;;;;18.19;45.82;93743.06;4991968;28;20496;-88
2023/05/09 00:58:49;;;;;;;31.08;21.67;;;;;;;18.20;45.74;93739.06;4992369;28;20033;-88
2023/05/09 01:01:15;;;;;;;30.70;21.38;;;;;;;18.21;45.38;93735.09;5008691;28;20886;-88
2023/05/09 01:03:41;;;;;;;29.23;21.63;;;;;;;18.17;45.64;93727.16;5028162;28;20041;-89
2023/05/09 01:06:30;;;;;;;32.97;21.75;;;;;;;18.17;45.41;93738.09;4995601;28;20033;-88
2023/05/09 01:09:09;;;;;;;29.52;22.10;;;;;;;18.19;45.21;93729.41;5025057;28;20045;-89
2023/05/09 01:12:05;;;;;;;29.60;20.38;;;;;;;18.17;45.26;93724.41;5008447;28;20044;-89
2023/05/09 01:14:38;;;;;;;29.58;21.38;;;;;;;18.16;45.85;93720.19;5025341;28;20033;-88
2023/05/09 01:17:21;;;;;;;27.95;20.88;;;;;;;18.15;45.51;93724.91;4995887;28;20034;-88
2023/05/09 01:19:55;;;;;;;30.25;20.42;;;;;;;18.17;45.73;93710.00;4989542;28;20038;-89
2023/05/09 01:22:22;;;;;;;31.60;21.55;;;;;;;18.15;45.48;93713.97;5011183;28;20042;-88
2023/05/09 01:25:00;;;;;;;26.33;20.55;;;;;;;18.13;45.36;93713.72;5035289;28;20047;-89
2023/05/09 01:27:43;;;;;;;28.65;19.90;;;;;;;18.15;45.32;93716.72;5045274;28;20095;-88
2023/05/09 01:30:11;;;;;;;27.92;21.00;;;;;;;18.10;45.95;93714.72;5013646;28;20033;-89
2023/05/09 01:32:37;;;;;;;31.08;22.15;;;;;;;18.14;45.91;93717.22;5026717;28;20124;-88
2023/05/09 01:35:03;;;;;;;27.15;20.15;;;;;;;18.14;45.33;93717.22;5008529;28;20045;-87
2023/05/09 01:37:30;;;;;;;27.15;19.33;;;;;;;18.15;45.51;93716.72;5005320;28;20058;-88
2023/05/09 01:40:00;;;;;;;29.70;21.27;;;;;;;18.13;45.40;93715.72;4973186;28;20038;-89
2023/05/09 01:42:28;;;;;;;24.55;19.25;;;;;;;18.13;45.23;93704.78;4973939;28;20042;-89
2023/05/09 01:44:54;;;;;;;28.65;21.50;;;;;;;18.14;45.91;93711.75;4999932;28;20042;-89
2023/05/09 01:47:19;;;;;;;28.13;20.80;;;;;;;18.13;45.47;93716.47;4991448;28;20030;-88
2023/05/09 01:49:45;;;;;;;27.15;20.23;;;;;;;18.13;45.57;93721.19;5008963;28;20040;-89
2023/05/09 01:52:12;;;;;;;25.15;18.95;;;;;;;18.12;45.76;93714.22;4989362;28;20038;-89
2023/05/09 01:54:37;;;;;;;28.17;19.83;;;;;;;18.10;45.32;93717.47;5016874;28;20132;-89
2023/05/09 01:57:03;;;;;;;28.35;20.83;;;;;;;18.13;45.37;93715.72;5011608;28;20036;-88
2023/05/09 01:59:30;;;;;;;23.60;18.92;;;;;;;18.13;45.40;93715.72;5006507;28;20037;-88
2023/05/09 02:01:56;;;;;;;27.63;19.95;;;;;;;18.14;45.25;93717.22;5008704;28;20034;-88
2023/05/09 02:04:22;;;;;;;28.85;19.63;;;;;;;18.11;45.90;93710.00;5013658;28;20044;-88
2023/05/09 02:06:51;;;;;;;27.08;18.65;;;;;;;18.10;45.32;93700.31;5028687;28;20049;-88
2023/05/09 02:09:19;;;;;;;27.95;20.13;;;;;;;18.09;45.32;93694.09;5016189;28;20141;-89
2023/05/09 02:11:45;;;;;;;26.88;19.20;;;;;;;18.11;45.58;93704.53;5028855;28;20041;-88
2023/05/09 02:14:12;;;;;;;26.50;19.45;;;;;;;18.10;45.23;93692.84;4999007;28;20041;-88
2023/05/09 02:16:38;;;;;;;24.05;17.75;;;;;;;18.10;44.99;93694.84;5032182;28;20037;-88
2023/05/09 02:19:04;;;;;;;28.55;18.75;;;;;;;18.10;45.49;93698.31;5032075;28;20462;-87
2023/05/09 02:21:29;;;;;;;29.08;20.58;;;;;;;18.08;45.88;93708.25;5032072;28;20037;-90
2023/05/09 02:23:55;;;;;;;28.63;19.83;;;;;;;18.07;45.96;93704.78;5023328;28;20034;-88
2023/05/09 02:26:21;;;;;;;27.40;18.98;;;;;;;18.09;45.38;93699.56;5015065;28;20039;-88
2023/05/09 02:28:46;;;;;;;26.02;18.60;;;;;;;18.11;45.66;93704.53;5015646;28;20419;-89
2023/05/09 02:31:12;;;;;;;26.23;19.70;;;;;;;18.08;45.96;93698.06;5030944;28;20045;-89
2023/05/09 02:33:37;;;;;;;26.20;19.48;;;;;;;18.07;45.52;93699.31;5032101;28;20091;-89
2023/05/09 02:36:03;;;;;;;26.92;18.20;;;;;;;18.06;45.54;93692.34;5019870;28;20393;-87
2023/05/09 02:38:28;;;;;;;24.15;17.40;;;;;;;18.10;45.09;93694.84;4994643;28;20049;-88
2023/05/09 02:40:54;;;;;;;24.50;15.90;;;;;;;18.10;45.32;93692.09;5011603;28;20038;-87
2023/05/09 02:43:19;;;;;;;24.00;17.38;;;;;;;18.10;45.31;93700.31;5011229;28;20103;-88
2023/05/09 02:45:45;;;;;;;27.38;18.92;;;;;;;18.08;45.53;93689.13;5011619;28;20393;-88
2023/05/09 02:48:10;;;;;;;24.40;17.48;;;;;;;18.09;45.62;93685.13;5010993;28;20049;-87
2023/05/09 02:50:41;;;;;;;25.65;18.48;;;;;;;18.08;45.59;93692.59;4995339;28;20056;-89
2023/05/09 02:53:06;;;;;;;;;;;;;;;18.10;45.44;93684.63;5012499;28;20036;-87
2023/05/09 02:55:32;;;;;;;22.77;17.67;;;;;;;18.08;45.30;93680.91;5028023;28;19917;-88
2023/05/09 02:57:57;;;;;;;22.98;16.77;;;;;;;18.07;45.27;93685.63;5011709;28;20274;-89
2023/05/09 03:00:24;;;;;;;22.65;17.42;;;;;;;18.04;45.37;93677.69;5010325;28;20038;-88
2023/05/09 03:02:50;;;;;;;24.67;18.45;;;;;;;18.02;45.83;93683.66;5028134;28;20116;-88
2023/05/09 03:05:16;;;;;;;24.15;15.98;;;;;;;18.05;45.32;93670.97;5003912;28;20445;-89
2023/05/09 03:07:42;;;;;;;24.25;18.10;;;;;;;18.03;46.05;93673.47;5031349;28;20037;-88
2023/05/09 03:10:10;;;;;;;22.52;16.23;;;;;;;18.05;44.92;93673.69;5035677;28;20041;-88
2023/05/09 03:12:37;;;;;;;24.58;17.77;;;;;;;18.04;45.84;93672.22;5011191;28;20116;-88
2023/05/09 03:15:03;;;;;;;22.38;16.85;;;;;;;18.04;45.42;93675.69;5018024;28;20044;-87
2023/05/09 03:17:28;;;;;;;24.25;17.17;;;;;;;18.04;46.01;93683.16;5014725;28;20059;-87
2023/05/09 03:19:53;;;;;;;23.25;17.02;;;;;;;18.05;45.64;93674.44;5028957;28;20033;-88
2023/05/09 03:22:19;;;;;;;22.50;16.98;;;;;;;18.04;45.74;93677.69;5030415;28;20049;-88
2023/05/09 03:24:44;;;;;;;21.40;16.95;;;;;;;18.03;45.87;93676.94;5036271;28;20233;-89
2023/05/09 03:27:10;;;;;;;22.35;16.08;;;;;;;18.02;45.74;93672.72;5010399;28;20448;-89
2023/05/09 03:29:35;;;;;;;22.58;17.88;;;;;;;18.02;45.34;93669.97;5026630;28;20123;-89
2023/05/09 03:32:01;;;;;;;24.65;19.02;;;;;;;18.03;45.97;93673.47;5010950;28;20060;-88
2023/05/09 03:34:26;;;;;;;25.45;18.23;;;;;;;18.06;45.91;93675.19;5010941;28;20034;-88
2023/05/09 03:36:55;;;;;;;61.08;46.92;;;;;;;18.13;45.54;93666.47;4997938;28;20053;-87
2023/05/09 03:39:21;;;;;;;233.65;161.55;;;;;;;18.24;45.58;93660.19;4972641;28;20048;-85
2023/05/09 03:41:47;;;;;;;49.40;33.88;;;;;;;18.21;45.09;93667.41;4989832;28;20472;-87
2023/05/09 03:44:13;;;;;;;38.70;23.85;;;;;;;18.19;45.64;93672.66;4973840;28;20042;-86
2023/05/09 03:46:39;;;;;;;44.38;25.58;;;;;;;18.23;45.49;93670.41;4991945;28;20049;-91
2023/05/09 03:49:05;;;;;;;28.83;19.42;;;;;;;18.15;46.31;93672.19;4994819;28;20046;-90
2023/05/09 03:51:31;;;;;;;49.30;24.48;;;;;;;18.25;45.68;93672.63;4991081;28;20046;-90
2023/05/09 03:53:58;;;;;;;33.25;20.05;;;;;;;18.30;45.70;93667.16;4980448;28;20571;-91
2023/05/09 03:56:24;;;;;;;53.47;23.20;;;;;;;18.27;43.68;93661.94;4973961;28;20033;-88
2023/05/09 03:58:50;;;;;;;79.22;26.60;;;;;;;18.12;41.54;93671.19;4956334;28;20053;-90
2023/05/09 04:01:16;;;;;;;48.33;17.17;;;;;;;17.90;40.31;93674.00;4982260;28;20470;-87
2023/05/09 04:03:42;;;;;;;44.53;15.30;;;;;;;17.78;39.24;93672.50;4960115;28;20050;-87
2023/05/09 04:06:07;;;;;;;50.53;19.20;;;;;;;17.75;39.26;93668.78;5003468;28;20750;-87
2023/05/09 04:08:32;;;;;;;82.35;23.83;;;;;;;17.64;38.04;93674.28;5002117;28;20045;-86
2023/05/09 04:10:58;;;;;;;61.05;22.80;;;;;;;17.46;37.73;93672.03;5000991;28;20038;-86
2023/05/09 04:13:23;;;;;;;141.00;33.22;;;;;;;17.40;37.28;93661.13;4999321;28;20453;-88
2023/05/09 04:15:49;;;;;;;119.20;30.55;;;;;;;17.39;37.44;93676.00;5037815;28;20051;-87
2023/05/09 04:18:15;;;;;;;91.07;26.83;;;;;;;17.45;36.99;93674.03;5001704;28;20053;-87
2023/05/09 04:20:40;;;;;;;79.20;24.40;;;;;;;17.35;36.88;93675.50;5012629;28;20033;-87
2023/05/09 04:23:06;;;;;;;103.22;36.38;;;;;;;17.33;36.85;93672.53;5011103;28;20554;-91
2023/05/09 04:25:31;;;;;;;84.13;31.98;;;;;;;17.19;36.33;93672.78;5021748;28;20076;-89
2023/05/09 04:27:57;;;;;;;73.15;22.70;;;;;;;17.10;36.59;93677.25;5013379;28;20038;-89
2023/05/09 04:30:25;;;;;;;49.47;17.10;;;;;;;17.18;36.81;93676.75;4999333;28;20041;-90
2023/05/09 04:32:52;;;;;;;37.88;16.10;;;;;;;17.07;36.58;93675.53;4993286;28;20038;-91
2023/05/09 04:35:17;;;;;;;51.03;15.68;;;;;;;16.97;36.54;93674.25;4992535;28;20535;-90
2023/05/09 04:37:43;;;;;;;50.60;14.20;;;;;;;16.94;36.83;93677.22;5005453;28;20049;-90
2023/05/09 04:40:09;;;;;;;36.95;10.90;;;;;;;16.97;36.85;93682.47;4988145;28;20031;-90
2023/05/09 04:42:35;;;;;;;44.78;12.77;;;;;;;16.96;36.94;93675.50;5007239;28;20037;-91
2023/05/09 04:45:00;;;;;;;39.28;12.13;;;;;;;17.05;36.98;93674.53;5009176;28;20546;-91
2023/05/09 04:47:26;;;;;;;31.10;12.13;;;;;;;17.17;36.41;93676.00;4997637;28;20048;-87
2023/05/09 04:49:51;;;;;;;48.60;15.38;;;;;;;17.20;36.72;93672.28;5010306;28;20053;-88
2023/05/09 04:52:17;;;;;;;57.45;19.83;;;;;;;17.25;36.85;93677.03;5015241;28;20046;-88
2023/05/09 04:54:43;;;;;;;64.18;24.17;;;;;;;17.29;37.19;93674.03;4992756;28;20453;-89
2023/05/09 04:57:08;;;;;;;73.70;21.52;;;;;;;17.33;37.11;93669.06;4985934;28;20053;-89
2023/05/09 04:59:34;;;;;;;47.63;18.13;;;;;;;17.35;37.33;93677.50;4989035;28;20038;-88
2023/05/09 05:02:01;;;;;;;62.08;21.63;;;;;;;17.39;37.80;93667.06;5007150;28;20130;-89
2023/05/09 05:04:27;;;;;;;84.82;24.02;;;;;;;17.47;37.05;93662.59;4992833;28;20531;-88
2023/05/09 05:06:54;;;;;;;328.20;40.97;;;;;;;17.47;37.40;93662.59;5009765;28;20041;-88
2023/05/09 05:09:20;;;;;;;228.52;33.60;;;;;;;17.53;37.81;93668.06;5009816;28;20042;-89
2023/05/09 05:11:45;;;;;;;104.18;28.65;;;;;;;17.56;37.95;93665.06;5004788;28;20369;-88
2023/05/09 05:14:11;;;;;;;112.50;31.85;;;;;;;17.55;38.01;93669.03;5001335;28;20417;-88
2023/05/09 05:16:36;;;;;;;117.90;36.03;;;;;;;17.56;38.14;93661.59;4990914;28;20046;-88
2023/05/09 05:19:02;;;;;;;111.38;35.63;;;;;;;17.57;38.03;93668.53;5002945;28;20041;-88
2023/05/09 05:21:28;;;;;;;109.28;41.70;;;;;;;17.66;38.25;93658.13;5003723;28;20404;-88
2023/05/09 05:23:54;;;;;;;84.88;28.20;;;;;;;17.60;38.02;93665.56;4991002;28;20057;-89
2023/05/09 05:26:20;;;;;;;187.77;49.42;;;;;;;17.66;38.59;93660.88;4996278;28;20151;-90
2023/05/09 05:28:46;;;;;;;138.05;37.90;;;;;;;17.69;38.92;93665.34;5025464;28;20061;-89
2023/05/09 05:31:11;;;;;;;167.00;43.90;;;;;;;17.70;38.53;93661.38;4991709;28;20042;-89
2023/05/09 05:33:37;;;;;;;151.07;57.05;;;;;;;17.72;38.82;93664.34;4989733;28;20034;-88
2023/05/09 05:36:03;;;;;;;154.02;56.08;;;;;;;17.73;38.37;93665.09;5010388;28;20076;-87
2023/05/09 05:38:29;;;;;;;170.88;51.85;;;;;;;17.82;39.04;93659.34;5000327;28;20041;-90
2023/05/09 05:40:54;;;;;;;129.43;45.92;;;;;;;17.83;38.65;93660.81;5035221;28;20044;-90
2023/05/09 05:43:20;;;;;;;140.88;52.10;;;;;;;17.90;39.55;93657.59;5015525;28;20034;-89
2023/05/09 05:45:45;;;;;;;178.20;59.88;;;;;;;17.87;39.34;93655.09;5014561;28;20030;-87
2023/05/09 05:48:11;;;;;;;182.13;65.05;;;;;;;17.95;39.23;93661.56;4998578;28;20045;-91
2023/05/09 05:50:38;;;;;;;175.52;69.00;;;;;;;17.94;39.50;93654.59;5024806;28;20539;-90
2023/05/09 05:53:05;;;;;;;191.88;90.90;;;;;;;17.97;39.82;93656.34;5024579;28;20072;-90
2023/05/09 05:55:30;;;;;;;169.63;69.70;;;;;;;17.97;40.19;93657.06;5040617;28;20037;-91
2023/05/09 05:57:56;;;;;;;193.00;84.35;;;;;;;18.01;39.87;93665.00;5017799;28;20488;-91
2023/05/09 06:00:21;;;;;;;172.10;75.82;;;;;;;18.03;40.12;93662.50;5008458;28;20056;-91
2023/05/09 06:02:47;;;;;;;214.90;85.15;;;;;;;18.12;40.50;93660.25;5029203;28;20099;-88
2023/05/09 06:05:13;;;;;;;185.15;81.75;;;;;;;18.13;39.98;93658.25;5055059;28;20051;-90
2023/05/09 06:07:40;;;;;;;211.00;88.05;;;;;;;18.13;40.75;93652.78;5036801;28;20052;-88
2023/05/09 06:10:06;;;;;;;159.93;74.75;;;;;;;18.15;40.58;93640.09;4999883;28;20030;-88
2023/05/09 06:12:32;;;;;;;154.07;73.68;;;;;;;18.20;40.69;93643.28;5016705;28;20053;-90
2023/05/09 06:14:57;;;;;;;154.63;73.25;;;;;;;18.18;40.89;93637.59;5001874;28;20484;-90
2023/05/09 06:17:23;;;;;;;140.52;72.60;;;;;;;18.21;40.69;93647.53;4996484;28;20042;-89
2023/05/09 06:19:48;;;;;;;144.35;70.43;;;;;;;18.23;40.67;93640.31;5016004;28;20038;-90
2023/05/09 06:22:14;;;;;;;144.20;68.43;;;;;;;18.23;40.66;93643.03;5015748;28;20049;-90
2023/05/09 06:24:39;;;;;;;138.75;64.63;;;;;;;18.27;40.62;93642.78;5032692;28;20403;-91
2023/05/09 06:27:13;;;;;;;123.15;63.38;;;;;;;18.28;40.69;93636.06;5032060;28;20084;-92
2023/05/09 06:29:39;;;;;;;133.05;68.80;;;;;;;18.27;40.42;93631.84;5022718;28;20575;-90
2023/05/09 06:32:04;;;;;;;113.93;57.10;;;;;;;18.29;40.88;93638.28;5034512;28;20034;-89
2023/05/09 06:34:30;;;;;;;113.38;64.70;;;;;;;18.32;41.14;93631.81;5033028;28;20041;-88
2023/05/09 06:36:57;;;;;;;142.63;72.22;;;;;;;18.33;40.86;93630.56;5013088;28;20033;-89
2023/05/09 06:39:22;;;;;;;162.25;87.90;;;;;;;18.38;40.67;93627.06;5033781;28;20041;-88
2023/05/09 06:41:48;;;;;;;181.93;88.65;;;;;;;18.38;40.65;93615.38;5020879;28;20391;-89
2023/05/09 06:44:13;;;;;;;184.27;86.28;;;;;;;18.37;41.03;93625.56;5015393;28;20060;-89
2023/05/09 06:46:39;;;;;;;163.65;78.15;;;;;;;18.37;40.89;93625.56;5014884;28;20056;-89
2023/05/09 06:49:14;;;;;;;152.90;75.47;;;;;;;18.39;41.34;93627.81;5004787;28;20076;-86
2023/05/09 06:51:39;;;;;;;152.45;73.70;;;;;;;18.44;41.03;93632.50;5000654;28;20045;-87
2023/05/09 06:54:05;;;;;;;122.80;68.78;;;;;;;18.40;41.34;93626.56;5002596;28;20038;-88
2023/05/09 06:56:31;;;;;;;139.77;69.15;;;;;;;18.44;41.47;93614.06;5031193;28;20124;-90
2023/05/09 06:58:56;;;;;;;150.80;72.20;;;;;;;18.46;40.71;93624.53;5022790;28;20032;-90
2023/05/09 07:01:22;;;;;;;142.90;73.88;;;;;;;18.46;41.26;93624.53;5035024;28;20045;-90
2023/05/09 07:03:48;;;;;;;148.38;77.55;;;;;;;18.48;40.66;93624.75;5025759;28;20056;-89
2023/05/09 07:06:13;;;;;;;151.05;73.60;;;;;;;18.49;40.94;93620.78;4999716;28;20045;-89
2023/05/09 07:08:38;;;;;;;145.63;70.50;;;;;;;18.50;41.31;93608.56;5020795;28;20049;-89
2023/05/09 07:11:04;;;;;;;170.10;84.22;;;;;;;18.50;40.77;93619.53;5022367;28;20106;-88
2023/05/09 07:13:30;;;;;;;210.10;97.80;;;;;;;18.54;41.11;93619.25;5008858;28;20044;-89
2023/05/09 07:15:56;;;;;;;196.30;90.63;;;;;;;18.55;41.14;93607.06;5014380;28;20029;-86
2023/05/09 07:18:22;;;;;;;212.25;104.22;;;;;;;18.55;40.84;93605.06;4995290;28;20120;-88
2023/05/09 07:20:47;;;;;;;211.45;102.97;;;;;;;18.58;40.88;93609.53;5032528;28;20044;-88
2023/05/09 07:23:12;;;;;;;209.73;103.40;;;;;;;18.56;40.92;93617.50;5020504;28;20033;-87
2023/05/09 07:25:38;;;;;;;194.48;97.10;;;;;;;18.57;41.27;93612.78;5025175;28;20555;-88
2023/05/09 07:28:04;;;;;;;205.15;97.75;;;;;;;18.55;41.50;93607.06;5046923;28;20033;-89
2023/05/09 07:30:29;;;;;;;224.00;106.55;;;;;;;18.60;41.08;93609.81;5032638;28;20430;-88
2023/05/09 07:32:55;;;;;;;241.40;115.57;;;;;;;18.60;41.79;93611.78;5040122;28;20125;-87
2023/05/09 07:35:20;;;;;;;226.38;110.25;;;;;;;18.58;41.60;93609.53;4995302;28;20042;-88
2023/05/09 07:37:46;;;;;;;247.75;120.60;;;;;;;18.62;41.30;93601.09;5008147;28;20057;-87
2023/05/09 07:40:11;;;;;;;257.80;119.00;;;;;;;18.63;41.62;93597.81;5030268;28;20045;-89
2023/05/09 07:42:37;;;;;;;289.42;141.88;;;;;;;18.59;41.59;93588.38;4992006;28;20046;-87
2023/05/09 07:45:04;;;;;;;333.50;159.32;;;;;;;18.60;41.72;93595.38;4993502;28;20043;-87
2023/05/09 07:47:31;;;;;;;267.15;137.18;;;;;;;18.61;41.47;93594.13;5006535;28;20037;-87
2023/05/09 07:49:56;;;;;;;264.92;135.95;;;;;;;18.60;41.94;93582.44;4997795;28;20049;-88
2023/05/09 07:52:21;;;;;;;256.40;143.43;;;;;;;18.62;42.06;93581.91;5019795;28;22525;-87
2023/05/09 07:54:47;;;;;;;291.30;138.95;;;;;;;18.66;41.95;93580.38;5030329;28;20402;-86
2023/05/09 07:57:13;;;;;;;252.65;134.13;;;;;;;18.68;41.48;93577.88;5013450;28;20052;-86
2023/05/09 07:59:38;;;;;;;284.40;138.70;;;;;;;18.64;42.05;93569.19;5016051;28;20037;-86
2023/05/09 08:02:03;;;;;;;257.25;131.48;;;;;;;18.66;42.02;93572.16;5008736;28;20041;-85
2023/05/09 08:04:29;;;;;;;271.75;136.65;;;;;;;18.61;41.76;93572.97;5012001;28;20050;-85
2023/05/09 08:06:55;;;;;;;269.00;132.43;;;;;;;18.63;42.06;93575.91;5026842;28;20569;-89
2023/05/09 08:09:20;;;;;;;247.82;128.45;;;;;;;18.65;41.80;93576.16;5003211;28;20114;-88
2023/05/09 08:11:46;;;;;;;295.00;158.35;;;;;;;18.67;41.58;93576.38;5015802;28;20044;-88
2023/05/09 08:14:11;;;;;;;738.80;197.30;;;;;;;18.64;42.24;93566.44;5011138;28;20046;-87
2023/05/09 08:16:36;;;;;;;553.55;160.10;;;;;;;18.67;41.87;93575.63;5028410;28;20037;-87
2023/05/09 08:19:02;;;;;;;376.60;190.55;;;;;;;18.71;41.85;93567.91;4991543;28;20863;-87
2023/05/09 08:21:28;;;;;;;371.80;194.20;;;;;;;18.80;41.32;93562.13;5008904;28;20034;-90
2023/05/09 08:23:54;;;;;;;196.05;102.30;;;;;;;18.66;40.02;93560.47;5011294;28;20037;-89
2023/05/09 08:26:21;;;;;;;134.27;70.07;;;;;;;18.67;39.73;93561.94;4985809;28;20138;-87
2023/05/09 08:28:46;;;;;;;127.30;58.70;;;;;;;18.56;39.35;93548.31;5004003;28;20128;-89
2023/05/09 08:31:13;;;;;;;131.00;54.53;;;;;;;18.36;39.82;93547.44;4983240;28;20555;-88
2023/05/09 08:33:38;;;;;;;105.55;43.35;;;;;;;18.33;39.66;93551.19;5032014;28;20075;-88
2023/05/09 08:36:13;;;;;;;104.65;36.05;;;;;;;18.19;39.66;93544.06;5006220;28;20037;-88
2023/05/09 08:38:39;;;;;;;98.78;34.75;;;;;;;18.10;39.97;93547.84;5037327;28;20045;-88
2023/05/09 08:41:04;;;;;;;87.05;34.47;;;;;;;18.13;40.20;93549.56;5007377;28;20044;-86
2023/05/09 08:43:30;;;;;;;81.03;34.33;;;;;;;18.05;39.40;93553.34;5015021;28;20033;-87
2023/05/09 08:45:57;;;;;;;69.97;23.83;;;;;;;18.14;38.77;93553.06;4995034;28;20042;-90
2023/05/09 08:48:22;;;;;;;78.95;28.98;;;;;;;17.99;38.58;93547.13;4997449;28;20671;-87
2023/05/09 08:50:49;;;;;;;91.85;37.50;;;;;;;17.96;38.78;93548.16;5043979;28;20068;-87
2023/05/09 08:53:17;;;;;;;94.10;39.60;;;;;;;18.05;38.88;93545.13;4995812;28;20041;-89
2023/05/09 08:55:43;;;;;;;81.55;34.67;;;;;;;18.11;38.46;93546.59;4997844;28;20045;-88
2023/05/09 08:58:08;;;;;;;65.55;31.98;;;;;;;18.11;37.89;93543.13;5011835;28;20104;-89
2023/05/09 09:00:35;;;;;;;80.28;35.95;;;;;;;18.07;37.47;93543.38;5033863;28;20057;-89
2023/05/09 09:03:02;;;;;;;142.82;62.70;;;;;;;18.05;37.14;93534.94;5011502;28;20526;-89
2023/05/09 09:05:28;;;;;;;114.30;43.72;;;;;;;18.08;37.49;93536.66;5012074;28;20043;-89
2023/05/09 09:07:53;;;;;;;101.18;39.83;;;;;;;17.93;37.17;93541.72;4992100;28;20075;-88
2023/05/09 09:10:20;;;;;;;105.90;37.50;;;;;;;17.93;37.08;93538.97;4998689;28;20058;-86
2023/05/09 09:12:46;;;;;;;74.78;30.13;;;;;;;17.92;37.39;93542.22;4982078;28;20524;-87
2023/05/09 09:15:16;;;;;;;90.25;26.83;;;;;;;17.94;37.70;93535.00;5014578;28;20132;-89
2023/05/09 09:17:42;;;;;;;69.22;24.30;;;;;;;17.86;37.08;93544.22;5000520;28;20484;-88
2023/05/09 09:20:11;;;;;;;60.10;22.90;;;;;;;17.81;37.00;93534.78;5020759;28;20029;-87
2023/05/09 09:22:36;;;;;;;128.60;53.17;;;;;;;17.86;37.35;93533.28;5031165;28;20121;-87
2023/05/09 09:25:02;;;;;;;54.95;20.20;;;;;;;17.88;37.47;93528.81;5015072;28;20563;-87
2023/05/09 09:27:27;;;;;;;75.65;20.15;;;;;;;17.83;36.95;93526.84;4997095;28;20033;-87
2023/05/09 09:29:53;;;;;;;92.43;29.02;;;;;;;17.90;36.77;93520.09;5026006;28;20041;-88
2023/05/09 09:32:21;;;;;;;74.38;29.75;;;;;;;17.96;37.29;93529.03;5030660;28;20042;-86
2023/05/09 09:34:49;;;;;;;54.78;22.50;;;;;;;17.93;37.73;93521.81;5008620;28;20447;-88
2023/05/09 09:37:22;;;;;;;97.32;18.50;;;;;;;17.88;37.98;93517.13;5007341;28;20175;-89
2023/05/09 09:39:54;;;;;;;66.30;17.90;;;;;;;17.91;37.77;93510.66;5013712;28;20060;-88
2023/05/09 09:42:20;;;;;;;96.60;28.85;;;;;;;17.90;37.34;93509.16;4997116;28;20067;-88
2023/05/09 09:44:51;;;;;;;235.13;102.88;;;;;;;17.81;37.61;93505.47;5009343;28;20033;-89
2023/05/09 09:47:17;;;;;;;112.55;48.38;;;;;;;17.83;37.83;93504.22;5003126;28;20038;-90
2023/05/09 09:49:46;;;;;;;113.78;50.10;;;;;;;17.88;38.08;93498.72;5035877;28;20063;-89
2023/05/09 09:52:11;;;;;;;106.95;43.40;;;;;;;17.85;37.97;93499.72;5027632;28;20358;-88
2023/05/09 09:54:37;;;;;;;55.33;27.10;;;;;;;17.87;37.41;93510.16;4988730;28;20514;-90
2023/05/09 09:57:02;;;;;;;60.40;24.20;;;;;;;17.83;37.61;93496.00;4986502;28;20034;-88
2023/05/09 09:59:28;;;;;;;55.63;25.50;;;;;;;17.89;37.33;93502.94;4984567;28;20788;-88
2023/05/09 10:01:58;;;;;;;84.18;22.40;;;;;;;17.90;37.58;93490.75;5037406;28;20103;-86
2023/05/09 10:04:27;;;;;;;43.35;17.52;;;;;;;17.79;37.29;93490.81;5024757;28;20037;-88
2023/05/09 10:06:57;;;;;;;31.83;13.38;;;;;;;17.86;37.05;93495.75;5005090;28;20574;-86
2023/05/09 10:09:23;;;;;;;31.00;12.55;;;;;;;17.84;37.08;93492.03;5008233;28;20570;-87
2023/05/09 10:11:50;;;;;;;27.45;12.52;;;;;;;17.89;36.99;93480.31;5007514;28;20045;-88
2023/05/09 10:14:20;;;;;;;27.73;10.38;;;;;;;17.94;37.67;93485.78;4995032;28;20075;-86
2023/05/09 10:16:50;;;;;;;18.77;8.52;;;;;;;17.91;37.61;93481.31;5023707;28;20121;-86
2023/05/09 10:19:19;;;;;;;15.13;7.72;;;;;;;17.88;37.59;93479.59;5027755;28;20512;-87
2023/05/09 10:21:50;;;;;;;13.88;6.80;;;;;;;17.79;37.43;93477.13;5033266;28;20068;-88
2023/05/09 10:24:17;;;;;;;10.63;7.40;;;;;;;17.75;37.36;93474.66;5031626;28;20044;-86
2023/05/09 10:26:42;;;;;;;11.20;6.60;;;;;;;17.80;37.67;93484.81;5030784;28;20517;-87
2023/05/09 10:29:09;;;;;;;11.10;5.60;;;;;;;17.79;38.54;93460.72;5030675;28;20037;-87
2023/05/09 10:31:35;;;;;;;14.82;6.00;;;;;;;17.85;37.38;93466.16;5014994;28;20575;-86
2023/05/09 10:34:01;;;;;;;7.80;5.82;;;;;;;17.85;37.47;93466.16;4995567;28;20144;-87
2023/05/09 10:36:27;;;;;;;7.40;5.07;;;;;;;17.83;36.59;93466.69;5010557;28;20033;-87
2023/05/09 10:38:53;;;;;;;6.50;4.25;;;;;;;17.82;35.61;93451.50;4994290;28;20374;-87
2023/05/09 10:41:20;;;;;;;5.88;4.20;;;;;;;17.80;35.53;93449.28;5027508;28;20033;-87
2023/05/09 10:43:46;;;;;;;9.27;4.63;;;;;;;17.80;35.54;93448.53;5011916;28;20049;-86
2023/05/09 10:46:11;;;;;;;6.40;4.20;;;;;;;17.80;35.80;93445.81;4995172;28;20539;-86
2023/05/09 10:48:37;;;;;;;17.83;4.80;;;;;;;17.90;37.05;93457.94;5015610;28;20558;-86
2023/05/09 10:51:02;;;;;;;33.33;14.63;;;;;;;17.88;36.81;93452.22;5010858;28;20340;-85
2023/05/09 10:53:44;;;;;;;72.10;19.55;;;;;;;17.88;36.00;93438.56;5011603;28;20049;-85
2023/05/09 10:56:30;;;;;;;30.75;11.73;;;;;;;17.87;36.02;93442.53;5010958;28;20061;-85
2023/05/09 10:58:56;;;;;;;22.20;7.30;;;;;;;17.82;35.07;93429.63;5012421;28;20519;-85
2023/05/09 11:01:33;;;;;;;40.60;9.88;;;;;;;17.81;35.83;93426.16;5011742;28;20045;-85
2023/05/09 11:03:58;;;;;;;32.20;13.68;;;;;;;17.83;36.30;93427.66;5028145;28;20041;-86
2023/05/09 11:06:45;;;;;;;40.13;14.82;;;;;;;17.88;36.80;93433.09;5010423;28;20041;-85
2023/05/09 11:09:31;;;;;;;41.53;17.13;;;;;;;17.92;37.19;93428.09;5018265;28;20050;-86
2023/05/09 11:12:03;;;;;;;31.38;16.80;;;;;;;17.93;38.01;93418.66;5023743;28;20696;-87